sensor_id;sensor_type;location;lat;lon;timestamp;P1;durP1;ratioP1;P2;durP2;ratioP2
57826;SDS011;43656;57.746;11.780;2023-11-19T00:02:13;4.22;;;2.03;;
57826;SDS011;43656;57.746;11.780;2023-11-19T00:04:39;3.55;;;2.10;;
57826;SDS011;43656;57.746;11.780;2023-11-19T00:07:05;3.90;;;2.20;;
57826;SDS011;43656;57.746;11.780;2023-11-19T00:09:32;5.22;;;2.10;;
57826;SDS011;43656;57.746;11.780;2023-11-19T00:11:58;3.72;;;2.10;;
57826;SDS011;43656;57.746;11.780;2023-11-19T00:14:25;2.28;;;1.67;;
57826;SDS011;43656;57.746;11.780;2023-11-19T00:16:54;3.53;;;2.03;;
57826;SDS011;43656;57.746;11.780;2023-11-19T00:19:19;3.15;;;1.73;;
57826;SDS011;43656;57.746;11.780;2023-11-19T00:21:45;3.05;;;2.00;;
57826;SDS011;43656;57.746;11.780;2023-11-19T00:24:11;2.70;;;1.73;;
57826;SDS011;43656;57.746;11.780;2023-11-19T00:26:37;2.83;;;2.00;;
57826;SDS011;43656;57.746;11.780;2023-11-19T00:29:03;2.75;;;1.80;;
57826;SDS011;43656;57.746;11.780;2023-11-19T00:31:28;2.78;;;1.90;;
57826;SDS011;43656;57.746;11.780;2023-11-19T00:33:54;2.38;;;2.13;;
57826;SDS011;43656;57.746;11.780;2023-11-19T00:36:19;2.35;;;1.70;;
57826;SDS011;43656;57.746;11.780;2023-11-19T00:38:45;2.80;;;2.20;;
57826;SDS011;43656;57.746;11.780;2023-11-19T00:41:11;2.78;;;2.08;;
57826;SDS011;43656;57.746;11.780;2023-11-19T00:43:36;5.60;;;2.25;;
57826;SDS011;43656;57.746;11.780;2023-11-19T00:46:01;5.30;;;2.42;;
57826;SDS011;43656;57.746;11.780;2023-11-19T00:48:28;2.72;;;1.98;;
57826;SDS011;43656;57.746;11.780;2023-11-19T00:50:53;2.33;;;1.83;;
57826;SDS011;43656;57.746;11.780;2023-11-19T00:53:19;2.15;;;1.80;;
57826;SDS011;43656;57.746;11.780;2023-11-19T00:55:44;2.85;;;2.08;;
57826;SDS011;43656;57.746;11.780;2023-11-19T00:58:10;2.95;;;2.10;;
57826;SDS011;43656;57.746;11.780;2023-11-19T01:00:35;5.15;;;2.60;;
57826;SDS011;43656;57.746;11.780;2023-11-19T01:03:00;2.92;;;1.80;;
57826;SDS011;43656;57.746;11.780;2023-11-19T01:05:26;2.67;;;2.10;;
57826;SDS011;43656;57.746;11.780;2023-11-19T01:07:53;3.22;;;2.15;;
57826;SDS011;43656;57.746;11.780;2023-11-19T01:10:19;4.85;;;2.30;;
57826;SDS011;43656;57.746;11.780;2023-11-19T01:12:45;3.50;;;2.35;;
57826;SDS011;43656;57.746;11.780;2023-11-19T01:15:10;3.85;;;2.20;;
57826;SDS011;43656;57.746;11.780;2023-11-19T01:17:38;4.03;;;2.40;;
57826;SDS011;43656;57.746;11.780;2023-11-19T01:20:04;4.20;;;2.35;;
57826;SDS011;43656;57.746;11.780;2023-11-19T01:22:31;4.97;;;2.22;;
57826;SDS011;43656;57.746;11.780;2023-11-19T01:24:57;2.33;;;1.77;;
57826;SDS011;43656;57.746;11.780;2023-11-19T01:27:26;3.67;;;2.30;;
57826;SDS011;43656;57.746;11.780;2023-11-19T01:29:51;3.75;;;2.15;;
57826;SDS011;43656;57.746;11.780;2023-11-19T01:32:17;2.90;;;2.08;;
57826;SDS011;43656;57.746;11.780;2023-11-19T01:34:42;2.22;;;1.70;;
57826;SDS011;43656;57.746;11.780;2023-11-19T01:37:07;2.85;;;1.73;;
57826;SDS011;43656;57.746;11.780;2023-11-19T01:39:37;7.88;;;4.38;;
57826;SDS011;43656;57.746;11.780;2023-11-19T01:42:03;8.82;;;5.00;;
57826;SDS011;43656;57.746;11.780;2023-11-19T01:44:28;8.80;;;4.88;;
57826;SDS011;43656;57.746;11.780;2023-11-19T01:46:54;10.25;;;5.47;;
57826;SDS011;43656;57.746;11.780;2023-11-19T01:49:19;3.88;;;2.20;;
57826;SDS011;43656;57.746;11.780;2023-11-19T01:51:45;7.80;;;4.57;;
57826;SDS011;43656;57.746;11.780;2023-11-19T01:54:12;5.65;;;3.95;;
57826;SDS011;43656;57.746;11.780;2023-11-19T01:56:38;7.95;;;4.53;;
57826;SDS011;43656;57.746;11.780;2023-11-19T01:59:08;10.75;;;6.13;;
57826;SDS011;43656;57.746;11.780;2023-11-19T02:01:36;3.58;;;2.22;;
57826;SDS011;43656;57.746;11.780;2023-11-19T02:04:04;3.63;;;2.50;;
57826;SDS011;43656;57.746;11.780;2023-11-19T02:06:34;14.95;;;7.82;;
57826;SDS011;43656;57.746;11.780;2023-11-19T02:09:02;3.63;;;2.20;;
57826;SDS011;43656;57.746;11.780;2023-11-19T02:11:32;1.75;;;1.40;;
57826;SDS011;43656;57.746;11.780;2023-11-19T02:13:59;2.40;;;1.67;;
57826;SDS011;43656;57.746;11.780;2023-11-19T02:16:25;2.67;;;1.95;;
57826;SDS011;43656;57.746;11.780;2023-11-19T02:18:51;2.30;;;1.73;;
57826;SDS011;43656;57.746;11.780;2023-11-19T02:21:16;2.88;;;1.55;;
57826;SDS011;43656;57.746;11.780;2023-11-19T02:23:43;3.15;;;1.55;;
57826;SDS011;43656;57.746;11.780;2023-11-19T02:28:48;3.05;;;1.55;;
57826;SDS011;43656;57.746;11.780;2023-11-19T02:31:13;2.60;;;1.50;;
57826;SDS011;43656;57.746;11.780;2023-11-19T02:33:39;1.70;;;1.30;;
57826;SDS011;43656;57.746;11.780;2023-11-19T02:36:05;1.88;;;1.50;;
57826;SDS011;43656;57.746;11.780;2023-11-19T02:38:35;2.60;;;1.70;;
57826;SDS011;43656;57.746;11.780;2023-11-19T02:41:04;1.80;;;1.35;;
57826;SDS011;43656;57.746;11.780;2023-11-19T02:43:32;2.05;;;1.38;;
57826;SDS011;43656;57.746;11.780;2023-11-19T02:46:02;2.05;;;1.40;;
57826;SDS011;43656;57.746;11.780;2023-11-19T02:48:31;2.15;;;1.30;;
57826;SDS011;43656;57.746;11.780;2023-11-19T02:50:57;2.78;;;1.30;;
57826;SDS011;43656;57.746;11.780;2023-11-19T02:53:23;2.28;;;1.30;;
57826;SDS011;43656;57.746;11.780;2023-11-19T02:55:50;1.77;;;1.20;;
57826;SDS011;43656;57.746;11.780;2023-11-19T02:58:15;1.35;;;1.00;;
57826;SDS011;43656;57.746;11.780;2023-11-19T03:00:49;1.52;;;1.05;;
57826;SDS011;43656;57.746;11.780;2023-11-19T03:03:21;2.45;;;1.13;;
57826;SDS011;43656;57.746;11.780;2023-11-19T03:05:48;2.00;;;1.20;;
57826;SDS011;43656;57.746;11.780;2023-11-19T03:08:17;2.00;;;1.50;;
57826;SDS011;43656;57.746;11.780;2023-11-19T03:10:42;1.77;;;1.10;;
57826;SDS011;43656;57.746;11.780;2023-11-19T03:13:11;2.92;;;1.20;;
57826;SDS011;43656;57.746;11.780;2023-11-19T03:15:39;2.08;;;1.20;;
57826;SDS011;43656;57.746;11.780;2023-11-19T03:18:05;2.33;;;1.25;;
57826;SDS011;43656;57.746;11.780;2023-11-19T03:20:30;1.38;;;1.02;;
57826;SDS011;43656;57.746;11.780;2023-11-19T03:22:55;4.40;;;1.25;;
57826;SDS011;43656;57.746;11.780;2023-11-19T03:25:24;2.97;;;1.60;;
57826;SDS011;43656;57.746;11.780;2023-11-19T03:27:52;2.53;;;1.40;;
57826;SDS011;43656;57.746;11.780;2023-11-19T03:30:18;2.33;;;1.20;;
57826;SDS011;43656;57.746;11.780;2023-11-19T03:32:45;1.75;;;1.27;;
57826;SDS011;43656;57.746;11.780;2023-11-19T03:35:11;1.27;;;1.05;;
57826;SDS011;43656;57.746;11.780;2023-11-19T03:37:37;2.97;;;1.35;;
57826;SDS011;43656;57.746;11.780;2023-11-19T03:40:02;1.30;;;1.05;;
57826;SDS011;43656;57.746;11.780;2023-11-19T03:42:28;2.35;;;1.30;;
57826;SDS011;43656;57.746;11.780;2023-11-19T03:44:55;1.63;;;1.08;;
57826;SDS011;43656;57.746;11.780;2023-11-19T03:47:21;2.08;;;1.35;;
57826;SDS011;43656;57.746;11.780;2023-11-19T03:49:50;2.75;;;1.52;;
57826;SDS011;43656;57.746;11.780;2023-11-19T03:52:16;2.30;;;1.10;;
57826;SDS011;43656;57.746;11.780;2023-11-19T03:54:43;2.35;;;1.45;;
57826;SDS011;43656;57.746;11.780;2023-11-19T03:57:09;1.92;;;1.30;;
57826;SDS011;43656;57.746;11.780;2023-11-19T03:59:37;1.83;;;1.30;;
57826;SDS011;43656;57.746;11.780;2023-11-19T04:02:03;2.20;;;1.20;;
57826;SDS011;43656;57.746;11.780;2023-11-19T04:04:28;1.75;;;1.38;;
57826;SDS011;43656;57.746;11.780;2023-11-19T04:06:57;1.60;;;1.10;;
57826;SDS011;43656;57.746;11.780;2023-11-19T04:09:23;1.80;;;1.13;;
57826;SDS011;43656;57.746;11.780;2023-11-19T04:11:49;2.72;;;1.42;;
57826;SDS011;43656;57.746;11.780;2023-11-19T04:14:14;3.28;;;1.30;;
57826;SDS011;43656;57.746;11.780;2023-11-19T04:16:40;2.50;;;1.42;;
57826;SDS011;43656;57.746;11.780;2023-11-19T04:19:06;3.42;;;1.27;;
57826;SDS011;43656;57.746;11.780;2023-11-19T04:21:31;2.05;;;1.35;;
57826;SDS011;43656;57.746;11.780;2023-11-19T04:23:57;2.25;;;1.40;;
57826;SDS011;43656;57.746;11.780;2023-11-19T04:26:22;2.50;;;1.45;;
57826;SDS011;43656;57.746;11.780;2023-11-19T04:28:48;4.28;;;1.40;;
57826;SDS011;43656;57.746;11.780;2023-11-19T04:31:14;2.33;;;1.40;;
57826;SDS011;43656;57.746;11.780;2023-11-19T04:33:41;1.98;;;1.50;;
57826;SDS011;43656;57.746;11.780;2023-11-19T04:36:06;3.65;;;1.45;;
57826;SDS011;43656;57.746;11.780;2023-11-19T04:38:32;1.92;;;1.10;;
57826;SDS011;43656;57.746;11.780;2023-11-19T04:40:58;2.95;;;1.65;;
57826;SDS011;43656;57.746;11.780;2023-11-19T04:43:23;2.40;;;1.30;;
57826;SDS011;43656;57.746;11.780;2023-11-19T04:45:48;2.28;;;1.20;;
57826;SDS011;43656;57.746;11.780;2023-11-19T04:48:14;2.15;;;1.35;;
57826;SDS011;43656;57.746;11.780;2023-11-19T04:50:39;2.17;;;1.50;;
57826;SDS011;43656;57.746;11.780;2023-11-19T04:53:04;2.45;;;1.67;;
57826;SDS011;43656;57.746;11.780;2023-11-19T04:55:30;3.83;;;1.38;;
57826;SDS011;43656;57.746;11.780;2023-11-19T04:57:55;2.17;;;1.40;;
57826;SDS011;43656;57.746;11.780;2023-11-19T05:00:21;2.35;;;1.63;;
57826;SDS011;43656;57.746;11.780;2023-11-19T05:02:47;2.35;;;1.60;;
57826;SDS011;43656;57.746;11.780;2023-11-19T05:05:12;2.55;;;1.60;;
57826;SDS011;43656;57.746;11.780;2023-11-19T05:07:40;2.38;;;1.50;;
57826;SDS011;43656;57.746;11.780;2023-11-19T05:10:05;2.53;;;1.42;;
57826;SDS011;43656;57.746;11.780;2023-11-19T05:12:32;2.47;;;1.42;;
57826;SDS011;43656;57.746;11.780;2023-11-19T05:14:57;2.08;;;1.33;;
57826;SDS011;43656;57.746;11.780;2023-11-19T05:17:23;3.50;;;1.50;;
57826;SDS011;43656;57.746;11.780;2023-11-19T05:19:48;2.92;;;1.48;;
57826;SDS011;43656;57.746;11.780;2023-11-19T05:22:14;2.42;;;1.50;;
57826;SDS011;43656;57.746;11.780;2023-11-19T05:24:39;1.83;;;1.40;;
57826;SDS011;43656;57.746;11.780;2023-11-19T05:27:05;2.67;;;1.63;;
57826;SDS011;43656;57.746;11.780;2023-11-19T05:29:32;3.58;;;1.92;;
57826;SDS011;43656;57.746;11.780;2023-11-19T05:32:00;1.88;;;1.40;;
57826;SDS011;43656;57.746;11.780;2023-11-19T05:34:27;2.45;;;1.55;;
57826;SDS011;43656;57.746;11.780;2023-11-19T05:36:52;2.15;;;1.50;;
57826;SDS011;43656;57.746;11.780;2023-11-19T05:39:17;2.20;;;1.60;;
57826;SDS011;43656;57.746;11.780;2023-11-19T05:41:46;2.33;;;1.33;;
57826;SDS011;43656;57.746;11.780;2023-11-19T05:44:12;2.17;;;1.42;;
57826;SDS011;43656;57.746;11.780;2023-11-19T05:46:37;2.70;;;1.45;;
57826;SDS011;43656;57.746;11.780;2023-11-19T05:49:07;2.08;;;1.60;;
57826;SDS011;43656;57.746;11.780;2023-11-19T05:51:35;2.88;;;1.63;;
57826;SDS011;43656;57.746;11.780;2023-11-19T05:54:02;2.65;;;1.40;;
57826;SDS011;43656;57.746;11.780;2023-11-19T05:56:27;1.63;;;1.30;;
57826;SDS011;43656;57.746;11.780;2023-11-19T05:58:57;2.25;;;1.70;;
57826;SDS011;43656;57.746;11.780;2023-11-19T06:01:23;1.85;;;1.50;;
57826;SDS011;43656;57.746;11.780;2023-11-19T06:03:48;1.73;;;1.33;;
57826;SDS011;43656;57.746;11.780;2023-11-19T06:06:15;2.33;;;1.58;;
57826;SDS011;43656;57.746;11.780;2023-11-19T06:08:40;2.78;;;1.40;;
57826;SDS011;43656;57.746;11.780;2023-11-19T06:11:05;1.15;;;0.95;;
57826;SDS011;43656;57.746;11.780;2023-11-19T06:13:32;2.13;;;1.58;;
57826;SDS011;43656;57.746;11.780;2023-11-19T06:15:57;1.90;;;1.30;;
57826;SDS011;43656;57.746;11.780;2023-11-19T06:18:23;2.50;;;1.20;;
57826;SDS011;43656;57.746;11.780;2023-11-19T06:20:49;1.45;;;1.10;;
57826;SDS011;43656;57.746;11.780;2023-11-19T06:23:15;2.33;;;1.48;;
57826;SDS011;43656;57.746;11.780;2023-11-19T06:25:40;1.50;;;1.20;;
57826;SDS011;43656;57.746;11.780;2023-11-19T06:28:05;1.20;;;1.02;;
57826;SDS011;43656;57.746;11.780;2023-11-19T06:30:31;1.75;;;1.35;;
57826;SDS011;43656;57.746;11.780;2023-11-19T06:32:57;1.92;;;1.20;;
57826;SDS011;43656;57.746;11.780;2023-11-19T06:35:24;2.35;;;1.20;;
57826;SDS011;43656;57.746;11.780;2023-11-19T06:37:49;2.35;;;1.52;;
57826;SDS011;43656;57.746;11.780;2023-11-19T06:40:14;2.50;;;1.33;;
57826;SDS011;43656;57.746;11.780;2023-11-19T06:42:40;1.70;;;1.10;;
57826;SDS011;43656;57.746;11.780;2023-11-19T06:45:06;1.92;;;1.17;;
57826;SDS011;43656;57.746;11.780;2023-11-19T06:47:32;2.08;;;1.55;;
57826;SDS011;43656;57.746;11.780;2023-11-19T06:49:58;1.50;;;1.13;;
57826;SDS011;43656;57.746;11.780;2023-11-19T06:52:24;2.28;;;1.30;;
57826;SDS011;43656;57.746;11.780;2023-11-19T06:54:50;1.77;;;1.27;;
57826;SDS011;43656;57.746;11.780;2023-11-19T06:57:15;2.08;;;1.50;;
57826;SDS011;43656;57.746;11.780;2023-11-19T06:59:41;1.38;;;1.20;;
57826;SDS011;43656;57.746;11.780;2023-11-19T07:02:07;2.30;;;1.40;;
57826;SDS011;43656;57.746;11.780;2023-11-19T07:04:33;2.80;;;1.73;;
57826;SDS011;43656;57.746;11.780;2023-11-19T07:06:58;2.35;;;1.50;;
57826;SDS011;43656;57.746;11.780;2023-11-19T07:09:25;3.58;;;1.50;;
57826;SDS011;43656;57.746;11.780;2023-11-19T07:11:50;3.80;;;1.65;;
57826;SDS011;43656;57.746;11.780;2023-11-19T07:14:17;1.98;;;1.23;;
57826;SDS011;43656;57.746;11.780;2023-11-19T07:16:43;2.70;;;1.30;;
57826;SDS011;43656;57.746;11.780;2023-11-19T07:19:09;1.98;;;1.45;;
57826;SDS011;43656;57.746;11.780;2023-11-19T07:21:34;3.42;;;1.90;;
57826;SDS011;43656;57.746;11.780;2023-11-19T07:24:04;1.85;;;1.65;;
57826;SDS011;43656;57.746;11.780;2023-11-19T07:26:30;3.40;;;1.90;;
57826;SDS011;43656;57.746;11.780;2023-11-19T07:28:56;2.13;;;1.45;;
57826;SDS011;43656;57.746;11.780;2023-11-19T07:31:21;2.58;;;1.90;;
57826;SDS011;43656;57.746;11.780;2023-11-19T07:33:48;2.10;;;1.50;;
57826;SDS011;43656;57.746;11.780;2023-11-19T07:36:14;2.45;;;1.48;;
57826;SDS011;43656;57.746;11.780;2023-11-19T07:38:39;2.20;;;1.70;;
57826;SDS011;43656;57.746;11.780;2023-11-19T07:41:05;2.80;;;1.95;;
57826;SDS011;43656;57.746;11.780;2023-11-19T07:43:31;1.85;;;1.40;;
57826;SDS011;43656;57.746;11.780;2023-11-19T07:45:57;2.40;;;1.55;;
57826;SDS011;43656;57.746;11.780;2023-11-19T07:48:24;2.33;;;1.90;;
57826;SDS011;43656;57.746;11.780;2023-11-19T07:50:50;3.22;;;1.80;;
57826;SDS011;43656;57.746;11.780;2023-11-19T07:53:16;2.58;;;1.75;;
57826;SDS011;43656;57.746;11.780;2023-11-19T07:55:41;4.22;;;1.50;;
57826;SDS011;43656;57.746;11.780;2023-11-19T07:58:07;2.83;;;1.80;;
57826;SDS011;43656;57.746;11.780;2023-11-19T08:00:32;3.50;;;2.22;;
57826;SDS011;43656;57.746;11.780;2023-11-19T08:02:58;3.88;;;1.98;;
57826;SDS011;43656;57.746;11.780;2023-11-19T08:05:24;2.80;;;1.60;;
57826;SDS011;43656;57.746;11.780;2023-11-19T08:07:52;2.15;;;1.60;;
57826;SDS011;43656;57.746;11.780;2023-11-19T08:10:18;2.45;;;1.60;;
57826;SDS011;43656;57.746;11.780;2023-11-19T08:12:44;2.05;;;1.63;;
57826;SDS011;43656;57.746;11.780;2023-11-19T08:15:09;2.90;;;1.70;;
57826;SDS011;43656;57.746;11.780;2023-11-19T08:17:35;1.75;;;1.38;;
57826;SDS011;43656;57.746;11.780;2023-11-19T08:20:01;2.97;;;2.10;;
57826;SDS011;43656;57.746;11.780;2023-11-19T08:22:28;3.20;;;1.70;;
57826;SDS011;43656;57.746;11.780;2023-11-19T08:24:53;2.50;;;1.90;;
57826;SDS011;43656;57.746;11.780;2023-11-19T08:27:19;3.55;;;2.10;;
57826;SDS011;43656;57.746;11.780;2023-11-19T08:29:51;2.80;;;1.60;;
57826;SDS011;43656;57.746;11.780;2023-11-19T08:32:17;2.83;;;1.80;;
57826;SDS011;43656;57.746;11.780;2023-11-19T08:34:42;2.45;;;1.80;;
57826;SDS011;43656;57.746;11.780;2023-11-19T08:37:08;3.55;;;2.00;;
57826;SDS011;43656;57.746;11.780;2023-11-19T08:39:33;4.40;;;2.20;;
57826;SDS011;43656;57.746;11.780;2023-11-19T08:42:00;3.45;;;1.48;;
57826;SDS011;43656;57.746;11.780;2023-11-19T08:44:25;2.92;;;1.80;;
57826;SDS011;43656;57.746;11.780;2023-11-19T08:46:50;3.78;;;1.63;;
57826;SDS011;43656;57.746;11.780;2023-11-19T08:49:16;1.95;;;1.60;;
57826;SDS011;43656;57.746;11.780;2023-11-19T08:51:42;4.63;;;2.25;;
57826;SDS011;43656;57.746;11.780;2023-11-19T08:54:08;2.85;;;1.75;;
57826;SDS011;43656;57.746;11.780;2023-11-19T08:56:33;2.30;;;2.00;;
57826;SDS011;43656;57.746;11.780;2023-11-19T08:59:00;3.30;;;1.92;;
57826;SDS011;43656;57.746;11.780;2023-11-19T09:01:26;3.22;;;2.00;;
57826;SDS011;43656;57.746;11.780;2023-11-19T09:03:51;2.53;;;1.83;;
57826;SDS011;43656;57.746;11.780;2023-11-19T09:06:17;3.03;;;1.60;;
57826;SDS011;43656;57.746;11.780;2023-11-19T09:08:43;2.78;;;2.10;;
57826;SDS011;43656;57.746;11.780;2023-11-19T09:11:09;2.60;;;1.77;;
57826;SDS011;43656;57.746;11.780;2023-11-19T09:13:37;2.63;;;1.90;;
57826;SDS011;43656;57.746;11.780;2023-11-19T09:16:02;4.68;;;1.90;;
57826;SDS011;43656;57.746;11.780;2023-11-19T09:18:29;3.78;;;2.05;;
57826;SDS011;43656;57.746;11.780;2023-11-19T09:20:54;2.35;;;1.70;;
57826;SDS011;43656;57.746;11.780;2023-11-19T09:23:20;2.40;;;2.00;;
57826;SDS011;43656;57.746;11.780;2023-11-19T09:25:45;3.08;;;2.08;;
57826;SDS011;43656;57.746;11.780;2023-11-19T09:28:11;3.00;;;2.28;;
57826;SDS011;43656;57.746;11.780;2023-11-19T09:30:36;5.72;;;2.30;;
57826;SDS011;43656;57.746;11.780;2023-11-19T09:33:01;3.20;;;2.13;;
57826;SDS011;43656;57.746;11.780;2023-11-19T09:35:27;5.07;;;2.25;;
57826;SDS011;43656;57.746;11.780;2023-11-19T09:37:53;3.13;;;2.38;;
57826;SDS011;43656;57.746;11.780;2023-11-19T09:40:18;3.42;;;2.50;;
57826;SDS011;43656;57.746;11.780;2023-11-19T09:42:44;3.42;;;2.10;;
57826;SDS011;43656;57.746;11.780;2023-11-19T09:45:15;5.55;;;3.45;;
57826;SDS011;43656;57.746;11.780;2023-11-19T09:47:44;3.50;;;2.35;;
57826;SDS011;43656;57.746;11.780;2023-11-19T09:50:16;5.20;;;2.83;;
57826;SDS011;43656;57.746;11.780;2023-11-19T09:52:43;2.95;;;2.28;;
57826;SDS011;43656;57.746;11.780;2023-11-19T09:55:10;3.67;;;2.20;;
57826;SDS011;43656;57.746;11.780;2023-11-19T09:57:35;3.35;;;2.10;;
57826;SDS011;43656;57.746;11.780;2023-11-19T10:00:09;3.85;;;1.80;;
57826;SDS011;43656;57.746;11.780;2023-11-19T10:02:36;3.38;;;1.95;;
57826;SDS011;43656;57.746;11.780;2023-11-19T10:05:06;4.13;;;2.53;;
57826;SDS011;43656;57.746;11.780;2023-11-19T10:07:33;5.10;;;2.30;;
57826;SDS011;43656;57.746;11.780;2023-11-19T10:10:00;2.33;;;1.70;;
57826;SDS011;43656;57.746;11.780;2023-11-19T10:12:28;3.72;;;2.20;;
57826;SDS011;43656;57.746;11.780;2023-11-19T10:14:56;4.28;;;2.20;;
57826;SDS011;43656;57.746;11.780;2023-11-19T10:17:28;3.30;;;2.40;;
57826;SDS011;43656;57.746;11.780;2023-11-19T10:19:57;5.78;;;2.80;;
57826;SDS011;43656;57.746;11.780;2023-11-19T10:22:23;3.55;;;2.50;;
57826;SDS011;43656;57.746;11.780;2023-11-19T10:24:50;2.80;;;2.40;;
57826;SDS011;43656;57.746;11.780;2023-11-19T10:27:15;3.38;;;2.55;;
57826;SDS011;43656;57.746;11.780;2023-11-19T10:29:44;5.05;;;2.65;;
57826;SDS011;43656;57.746;11.780;2023-11-19T10:32:10;3.47;;;2.38;;
57826;SDS011;43656;57.746;11.780;2023-11-19T10:34:37;3.78;;;2.65;;
57826;SDS011;43656;57.746;11.780;2023-11-19T10:37:04;3.72;;;2.55;;
57826;SDS011;43656;57.746;11.780;2023-11-19T10:42:21;3.65;;;2.45;;
57826;SDS011;43656;57.746;11.780;2023-11-19T10:44:46;5.00;;;2.58;;
57826;SDS011;43656;57.746;11.780;2023-11-19T10:47:13;6.88;;;2.90;;
57826;SDS011;43656;57.746;11.780;2023-11-19T10:49:39;3.92;;;2.70;;
57826;SDS011;43656;57.746;11.780;2023-11-19T10:52:05;3.50;;;2.38;;
57826;SDS011;43656;57.746;11.780;2023-11-19T10:54:34;4.40;;;2.70;;
57826;SDS011;43656;57.746;11.780;2023-11-19T10:57:00;3.20;;;2.50;;
57826;SDS011;43656;57.746;11.780;2023-11-19T10:59:30;4.60;;;2.83;;
57826;SDS011;43656;57.746;11.780;2023-11-19T11:01:59;4.00;;;2.72;;
57826;SDS011;43656;57.746;11.780;2023-11-19T11:04:30;4.18;;;2.95;;
57826;SDS011;43656;57.746;11.780;2023-11-19T11:07:04;3.65;;;2.53;;
57826;SDS011;43656;57.746;11.780;2023-11-19T11:09:31;3.20;;;2.63;;
57826;SDS011;43656;57.746;11.780;2023-11-19T11:11:57;4.40;;;2.97;;
57826;SDS011;43656;57.746;11.780;2023-11-19T11:14:25;4.63;;;2.95;;
57826;SDS011;43656;57.746;11.780;2023-11-19T11:16:52;4.63;;;2.90;;
57826;SDS011;43656;57.746;11.780;2023-11-19T11:19:18;9.30;;;5.90;;
57826;SDS011;43656;57.746;11.780;2023-11-19T11:21:46;4.55;;;3.55;;
57826;SDS011;43656;57.746;11.780;2023-11-19T11:32:25;7.68;;;4.10;;
57826;SDS011;43656;57.746;11.780;2023-11-19T11:38:03;4.60;;;3.13;;
57826;SDS011;43656;57.746;11.780;2023-11-19T11:40:31;6.78;;;3.25;;
57826;SDS011;43656;57.746;11.780;2023-11-19T11:42:57;4.88;;;3.05;;
57826;SDS011;43656;57.746;11.780;2023-11-19T11:45:35;4.30;;;2.83;;
57826;SDS011;43656;57.746;11.780;2023-11-19T11:50:31;6.45;;;3.03;;
57826;SDS011;43656;57.746;11.780;2023-11-19T11:58:02;4.43;;;3.10;;
57826;SDS011;43656;57.746;11.780;2023-11-19T12:03:01;5.05;;;2.97;;
57826;SDS011;43656;57.746;11.780;2023-11-19T12:05:27;4.88;;;3.35;;
57826;SDS011;43656;57.746;11.780;2023-11-19T12:07:54;4.00;;;3.03;;
57826;SDS011;43656;57.746;11.780;2023-11-19T12:10:20;5.05;;;3.55;;
57826;SDS011;43656;57.746;11.780;2023-11-19T12:12:47;4.82;;;3.33;;
57826;SDS011;43656;57.746;11.780;2023-11-19T12:15:12;6.10;;;3.38;;
57826;SDS011;43656;57.746;11.780;2023-11-19T12:17:49;4.05;;;3.35;;
57826;SDS011;43656;57.746;11.780;2023-11-19T12:20:15;4.60;;;3.30;;
57826;SDS011;43656;57.746;11.780;2023-11-19T12:22:42;5.55;;;3.58;;
57826;SDS011;43656;57.746;11.780;2023-11-19T12:25:09;4.95;;;3.20;;
57826;SDS011;43656;57.746;11.780;2023-11-19T12:27:37;3.97;;;2.80;;
57826;SDS011;43656;57.746;11.780;2023-11-19T12:30:05;5.15;;;3.72;;
57826;SDS011;43656;57.746;11.780;2023-11-19T12:32:41;6.97;;;3.67;;
57826;SDS011;43656;57.746;11.780;2023-11-19T12:35:08;5.50;;;3.35;;
57826;SDS011;43656;57.746;11.780;2023-11-19T12:40:10;5.07;;;3.45;;
57826;SDS011;43656;57.746;11.780;2023-11-19T12:42:40;4.22;;;3.20;;
57826;SDS011;43656;57.746;11.780;2023-11-19T12:45:06;4.53;;;3.17;;
57826;SDS011;43656;57.746;11.780;2023-11-19T12:47:33;5.20;;;3.35;;
57826;SDS011;43656;57.746;11.780;2023-11-19T12:49:58;4.97;;;2.70;;
57826;SDS011;43656;57.746;11.780;2023-11-19T12:52:24;4.53;;;3.15;;
57826;SDS011;43656;57.746;11.780;2023-11-19T12:54:50;4.68;;;3.25;;
57826;SDS011;43656;57.746;11.780;2023-11-19T12:57:16;5.25;;;3.33;;
57826;SDS011;43656;57.746;11.780;2023-11-19T12:59:41;4.95;;;3.10;;
57826;SDS011;43656;57.746;11.780;2023-11-19T13:02:08;7.03;;;3.67;;
57826;SDS011;43656;57.746;11.780;2023-11-19T13:04:33;5.25;;;2.95;;
57826;SDS011;43656;57.746;11.780;2023-11-19T13:07:00;4.00;;;3.40;;
57826;SDS011;43656;57.746;11.780;2023-11-19T13:09:28;4.60;;;3.20;;
57826;SDS011;43656;57.746;11.780;2023-11-19T13:11:55;5.05;;;3.25;;
57826;SDS011;43656;57.746;11.780;2023-11-19T13:14:21;5.88;;;3.60;;
57826;SDS011;43656;57.746;11.780;2023-11-19T13:16:48;6.07;;;3.65;;
57826;SDS011;43656;57.746;11.780;2023-11-19T13:19:17;4.30;;;3.13;;
57826;SDS011;43656;57.746;11.780;2023-11-19T13:21:44;5.30;;;2.97;;
57826;SDS011;43656;57.746;11.780;2023-11-19T13:24:12;4.25;;;3.10;;
57826;SDS011;43656;57.746;11.780;2023-11-19T13:26:38;4.78;;;2.78;;
57826;SDS011;43656;57.746;11.780;2023-11-19T13:29:03;4.28;;;3.00;;
57826;SDS011;43656;57.746;11.780;2023-11-19T13:31:29;7.00;;;3.25;;
57826;SDS011;43656;57.746;11.780;2023-11-19T13:33:55;4.78;;;3.13;;
57826;SDS011;43656;57.746;11.780;2023-11-19T13:36:21;5.13;;;3.00;;
57826;SDS011;43656;57.746;11.780;2023-11-19T13:38:47;5.22;;;3.22;;
57826;SDS011;43656;57.746;11.780;2023-11-19T13:41:12;4.57;;;2.70;;
57826;SDS011;43656;57.746;11.780;2023-11-19T13:43:39;5.75;;;2.80;;
57826;SDS011;43656;57.746;11.780;2023-11-19T13:46:05;6.25;;;2.97;;
57826;SDS011;43656;57.746;11.780;2023-11-19T13:48:31;5.15;;;2.67;;
57826;SDS011;43656;57.746;11.780;2023-11-19T13:50:56;3.80;;;2.53;;
57826;SDS011;43656;57.746;11.780;2023-11-19T13:53:22;3.10;;;2.28;;
57826;SDS011;43656;57.746;11.780;2023-11-19T13:55:50;3.65;;;2.58;;
57826;SDS011;43656;57.746;11.780;2023-11-19T13:58:15;5.78;;;2.63;;
57826;SDS011;43656;57.746;11.780;2023-11-19T14:00:41;5.88;;;2.65;;
57826;SDS011;43656;57.746;11.780;2023-11-19T14:03:07;4.80;;;2.53;;
57826;SDS011;43656;57.746;11.780;2023-11-19T14:05:32;5.15;;;2.88;;
57826;SDS011;43656;57.746;11.780;2023-11-19T14:07:58;5.72;;;2.58;;
57826;SDS011;43656;57.746;11.780;2023-11-19T14:10:23;4.90;;;2.47;;
57826;SDS011;43656;57.746;11.780;2023-11-19T14:12:49;5.70;;;2.40;;
57826;SDS011;43656;57.746;11.780;2023-11-19T14:15:15;3.83;;;2.38;;
57826;SDS011;43656;57.746;11.780;2023-11-19T14:17:42;3.72;;;2.38;;
57826;SDS011;43656;57.746;11.780;2023-11-19T14:20:08;5.13;;;2.53;;
57826;SDS011;43656;57.746;11.780;2023-11-19T14:22:42;4.60;;;2.60;;
57826;SDS011;43656;57.746;11.780;2023-11-19T14:25:09;3.38;;;2.30;;
57826;SDS011;43656;57.746;11.780;2023-11-19T14:27:42;4.53;;;2.58;;
57826;SDS011;43656;57.746;11.780;2023-11-19T14:30:09;4.45;;;2.50;;
57826;SDS011;43656;57.746;11.780;2023-11-19T14:32:39;3.67;;;2.60;;
57826;SDS011;43656;57.746;11.780;2023-11-19T14:35:05;4.68;;;2.10;;
57826;SDS011;43656;57.746;11.780;2023-11-19T14:37:32;3.70;;;2.40;;
57826;SDS011;43656;57.746;11.780;2023-11-19T14:39:58;4.65;;;2.17;;
57826;SDS011;43656;57.746;11.780;2023-11-19T14:42:24;3.83;;;1.92;;
57826;SDS011;43656;57.746;11.780;2023-11-19T14:44:50;5.00;;;2.28;;
57826;SDS011;43656;57.746;11.780;2023-11-19T14:47:17;3.10;;;1.90;;
57826;SDS011;43656;57.746;11.780;2023-11-19T14:49:43;4.75;;;2.40;;
57826;SDS011;43656;57.746;11.780;2023-11-19T14:52:09;2.55;;;2.17;;
57826;SDS011;43656;57.746;11.780;2023-11-19T14:54:35;3.13;;;2.30;;
57826;SDS011;43656;57.746;11.780;2023-11-19T14:59:45;7.35;;;2.22;;
57826;SDS011;43656;57.746;11.780;2023-11-19T15:02:11;3.67;;;2.33;;